sensor_id;sensor_type;location;lat;lon;timestamp;P1;durP1;ratioP1;P2;durP2;ratioP2
72611;SDS011;60655;52.182;4.474;2023-05-23T00:00:11;16.63;;;6.85;;
72611;SDS011;60655;52.182;4.474;2023-05-23T00:02:13;23.48;;;7.32;;
72611;SDS011;60655;52.182;4.474;2023-05-23T00:04:15;23.05;;;7.20;;
72611;SDS011;60655;52.182;4.474;2023-05-23T00:06:18;28.33;;;7.35;;
72611;SDS011;60655;52.182;4.474;2023-05-23T00:08:20;28.92;;;8.90;;
72611;SDS011;60655;52.182;4.474;2023-05-23T00:10:21;24.45;;;7.75;;
72611;SDS011;60655;52.182;4.474;2023-05-23T00:12:22;34.75;;;7.82;;
72611;SDS011;60655;52.182;4.474;2023-05-23T00:14:23;32.65;;;8.18;;
72611;SDS011;60655;52.182;4.474;2023-05-23T00:16:24;28.88;;;7.97;;
72611;SDS011;60655;52.182;4.474;2023-05-23T00:18:25;34.38;;;8.27;;
72611;SDS011;60655;52.182;4.474;2023-05-23T00:20:26;34.83;;;8.27;;
72611;SDS011;60655;52.182;4.474;2023-05-23T00:22:28;26.77;;;8.00;;
72611;SDS011;60655;52.182;4.474;2023-05-23T00:24:29;25.67;;;8.02;;
72611;SDS011;60655;52.182;4.474;2023-05-23T00:26:30;23.92;;;7.28;;
72611;SDS011;60655;52.182;4.474;2023-05-23T00:28:32;25.98;;;6.88;;
72611;SDS011;60655;52.182;4.474;2023-05-23T00:30:32;27.52;;;7.25;;
72611;SDS011;60655;52.182;4.474;2023-05-23T00:32:33;25.75;;;6.90;;
72611;SDS011;60655;52.182;4.474;2023-05-23T00:34:35;26.48;;;7.05;;
72611;SDS011;60655;52.182;4.474;2023-05-23T00:36:37;25.25;;;6.75;;
72611;SDS011;60655;52.182;4.474;2023-05-23T00:38:38;24.33;;;6.43;;
72611;SDS011;60655;52.182;4.474;2023-05-23T00:40:39;24.65;;;6.45;;
72611;SDS011;60655;52.182;4.474;2023-05-23T00:42:40;23.58;;;6.40;;
72611;SDS011;60655;52.182;4.474;2023-05-23T00:44:41;24.60;;;6.13;;
72611;SDS011;60655;52.182;4.474;2023-05-23T00:46:42;27.10;;;6.10;;
72611;SDS011;60655;52.182;4.474;2023-05-23T00:48:47;21.80;;;5.20;;
72611;SDS011;60655;52.182;4.474;2023-05-23T00:50:47;22.73;;;5.70;;
72611;SDS011;60655;52.182;4.474;2023-05-23T00:52:49;21.42;;;5.18;;
72611;SDS011;60655;52.182;4.474;2023-05-23T00:54:50;15.95;;;4.70;;
72611;SDS011;60655;52.182;4.474;2023-05-23T00:56:51;21.05;;;5.72;;
72611;SDS011;60655;52.182;4.474;2023-05-23T00:58:53;19.05;;;5.03;;
72611;SDS011;60655;52.182;4.474;2023-05-23T01:00:54;27.92;;;5.68;;
72611;SDS011;60655;52.182;4.474;2023-05-23T01:02:55;20.75;;;5.45;;
72611;SDS011;60655;52.182;4.474;2023-05-23T01:04:56;16.33;;;4.78;;
72611;SDS011;60655;52.182;4.474;2023-05-23T01:06:57;15.38;;;4.97;;
72611;SDS011;60655;52.182;4.474;2023-05-23T01:09:00;17.85;;;4.65;;
72611;SDS011;60655;52.182;4.474;2023-05-23T01:11:03;24.55;;;5.70;;
72611;SDS011;60655;52.182;4.474;2023-05-23T01:15:16;22.90;;;4.50;;
72611;SDS011;60655;52.182;4.474;2023-05-23T01:17:24;21.40;;;5.40;;
72611;SDS011;60655;52.182;4.474;2023-05-23T01:21:52;25.38;;;5.60;;
72611;SDS011;60655;52.182;4.474;2023-05-23T01:24:01;16.85;;;4.57;;
72611;SDS011;60655;52.182;4.474;2023-05-23T01:26:30;27.83;;;5.28;;
72611;SDS011;60655;52.182;4.474;2023-05-23T01:28:32;22.55;;;4.55;;
72611;SDS011;60655;52.182;4.474;2023-05-23T01:30:56;21.70;;;4.85;;
72611;SDS011;60655;52.182;4.474;2023-05-23T01:33:01;20.05;;;4.43;;
72611;SDS011;60655;52.182;4.474;2023-05-23T01:35:04;21.05;;;4.53;;
72611;SDS011;60655;52.182;4.474;2023-05-23T01:37:08;26.73;;;4.80;;
72611;SDS011;60655;52.182;4.474;2023-05-23T01:39:10;21.08;;;5.20;;
72611;SDS011;60655;52.182;4.474;2023-05-23T01:41:11;15.38;;;4.60;;
72611;SDS011;60655;52.182;4.474;2023-05-23T01:43:12;19.13;;;4.90;;
72611;SDS011;60655;52.182;4.474;2023-05-23T01:45:14;15.98;;;5.32;;
72611;SDS011;60655;52.182;4.474;2023-05-23T01:47:17;20.73;;;5.50;;
72611;SDS011;60655;52.182;4.474;2023-05-23T01:49:18;19.25;;;5.07;;
72611;SDS011;60655;52.182;4.474;2023-05-23T01:51:21;22.75;;;5.22;;
72611;SDS011;60655;52.182;4.474;2023-05-23T01:53:22;22.90;;;4.72;;
72611;SDS011;60655;52.182;4.474;2023-05-23T01:55:25;24.70;;;5.70;;
72611;SDS011;60655;52.182;4.474;2023-05-23T01:57:28;25.45;;;4.88;;
72611;SDS011;60655;52.182;4.474;2023-05-23T01:59:30;27.05;;;4.70;;
72611;SDS011;60655;52.182;4.474;2023-05-23T02:01:31;21.40;;;4.78;;
72611;SDS011;60655;52.182;4.474;2023-05-23T02:03:34;21.00;;;5.03;;
72611;SDS011;60655;52.182;4.474;2023-05-23T02:05:35;21.20;;;4.63;;
72611;SDS011;60655;52.182;4.474;2023-05-23T02:07:36;18.83;;;4.65;;
72611;SDS011;60655;52.182;4.474;2023-05-23T02:09:37;18.17;;;4.93;;
72611;SDS011;60655;52.182;4.474;2023-05-23T02:11:38;21.13;;;4.65;;
72611;SDS011;60655;52.182;4.474;2023-05-23T02:13:39;22.45;;;4.45;;
72611;SDS011;60655;52.182;4.474;2023-05-23T02:15:40;20.60;;;4.82;;
72611;SDS011;60655;52.182;4.474;2023-05-23T02:17:41;24.38;;;4.53;;
72611;SDS011;60655;52.182;4.474;2023-05-23T02:19:42;19.80;;;4.30;;
72611;SDS011;60655;52.182;4.474;2023-05-23T02:21:43;20.70;;;4.32;;
72611;SDS011;60655;52.182;4.474;2023-05-23T02:23:44;16.67;;;5.28;;
72611;SDS011;60655;52.182;4.474;2023-05-23T02:25:45;17.58;;;4.63;;
72611;SDS011;60655;52.182;4.474;2023-05-23T02:27:46;22.05;;;4.93;;
72611;SDS011;60655;52.182;4.474;2023-05-23T02:29:47;18.65;;;4.13;;
72611;SDS011;60655;52.182;4.474;2023-05-23T02:31:48;16.42;;;4.43;;
72611;SDS011;60655;52.182;4.474;2023-05-23T02:33:49;13.90;;;4.13;;
72611;SDS011;60655;52.182;4.474;2023-05-23T02:35:50;18.52;;;3.90;;
72611;SDS011;60655;52.182;4.474;2023-05-23T02:37:51;24.73;;;4.25;;
72611;SDS011;60655;52.182;4.474;2023-05-23T02:39:52;14.18;;;3.55;;
72611;SDS011;60655;52.182;4.474;2023-05-23T02:41:53;19.10;;;3.83;;
72611;SDS011;60655;52.182;4.474;2023-05-23T02:43:53;19.45;;;3.40;;
72611;SDS011;60655;52.182;4.474;2023-05-23T02:45:55;11.93;;;3.13;;
72611;SDS011;60655;52.182;4.474;2023-05-23T02:47:56;11.70;;;3.42;;
72611;SDS011;60655;52.182;4.474;2023-05-23T02:49:57;21.90;;;3.95;;
72611;SDS011;60655;52.182;4.474;2023-05-23T02:51:58;17.73;;;4.45;;
72611;SDS011;60655;52.182;4.474;2023-05-23T02:53:58;17.48;;;3.92;;
72611;SDS011;60655;52.182;4.474;2023-05-23T02:55:59;17.27;;;4.03;;
72611;SDS011;60655;52.182;4.474;2023-05-23T02:58:00;19.83;;;3.70;;
72611;SDS011;60655;52.182;4.474;2023-05-23T03:00:05;16.52;;;3.83;;
72611;SDS011;60655;52.182;4.474;2023-05-23T03:02:06;18.67;;;3.75;;
72611;SDS011;60655;52.182;4.474;2023-05-23T03:04:07;13.57;;;3.47;;
72611;SDS011;60655;52.182;4.474;2023-05-23T03:06:08;15.38;;;3.40;;
72611;SDS011;60655;52.182;4.474;2023-05-23T03:08:14;15.10;;;3.53;;
72611;SDS011;60655;52.182;4.474;2023-05-23T03:10:15;18.08;;;3.60;;
72611;SDS011;60655;52.182;4.474;2023-05-23T03:12:16;16.05;;;3.17;;
72611;SDS011;60655;52.182;4.474;2023-05-23T03:14:17;15.68;;;3.53;;
72611;SDS011;60655;52.182;4.474;2023-05-23T03:16:17;15.15;;;3.35;;
72611;SDS011;60655;52.182;4.474;2023-05-23T03:18:18;13.32;;;3.30;;
72611;SDS011;60655;52.182;4.474;2023-05-23T03:20:19;8.80;;;2.85;;
72611;SDS011;60655;52.182;4.474;2023-05-23T03:22:20;15.63;;;2.90;;
72611;SDS011;60655;52.182;4.474;2023-05-23T03:24:21;11.85;;;3.13;;
72611;SDS011;60655;52.182;4.474;2023-05-23T03:26:22;11.73;;;2.97;;
72611;SDS011;60655;52.182;4.474;2023-05-23T03:28:23;13.98;;;3.38;;
72611;SDS011;60655;52.182;4.474;2023-05-23T03:30:24;13.95;;;3.42;;
72611;SDS011;60655;52.182;4.474;2023-05-23T03:32:25;20.15;;;3.65;;
72611;SDS011;60655;52.182;4.474;2023-05-23T03:34:26;13.43;;;3.53;;
72611;SDS011;60655;52.182;4.474;2023-05-23T03:36:27;13.27;;;3.25;;
72611;SDS011;60655;52.182;4.474;2023-05-23T03:38:28;11.25;;;3.63;;
72611;SDS011;60655;52.182;4.474;2023-05-23T03:40:29;13.57;;;3.50;;
72611;SDS011;60655;52.182;4.474;2023-05-23T03:42:30;15.32;;;3.40;;
72611;SDS011;60655;52.182;4.474;2023-05-23T03:44:31;13.38;;;3.75;;
72611;SDS011;60655;52.182;4.474;2023-05-23T03:46:32;12.38;;;3.08;;
72611;SDS011;60655;52.182;4.474;2023-05-23T03:48:33;20.30;;;3.97;;
72611;SDS011;60655;52.182;4.474;2023-05-23T03:50:34;16.40;;;4.40;;
72611;SDS011;60655;52.182;4.474;2023-05-23T03:52:35;15.45;;;4.43;;
72611;SDS011;60655;52.182;4.474;2023-05-23T03:54:36;13.65;;;3.58;;
72611;SDS011;60655;52.182;4.474;2023-05-23T03:56:37;13.20;;;3.70;;
72611;SDS011;60655;52.182;4.474;2023-05-23T03:58:38;14.50;;;4.10;;
72611;SDS011;60655;52.182;4.474;2023-05-23T04:00:39;15.80;;;4.00;;
72611;SDS011;60655;52.182;4.474;2023-05-23T04:02:40;18.38;;;4.07;;
72611;SDS011;60655;52.182;4.474;2023-05-23T04:04:41;17.60;;;4.57;;
72611;SDS011;60655;52.182;4.474;2023-05-23T04:06:42;17.88;;;5.07;;
72611;SDS011;60655;52.182;4.474;2023-05-23T04:08:44;17.05;;;4.65;;
72611;SDS011;60655;52.182;4.474;2023-05-23T04:10:44;19.58;;;4.88;;
72611;SDS011;60655;52.182;4.474;2023-05-23T04:12:45;17.20;;;5.05;;
72611;SDS011;60655;52.182;4.474;2023-05-23T04:14:47;18.42;;;4.65;;
72611;SDS011;60655;52.182;4.474;2023-05-23T04:16:49;21.25;;;4.80;;
72611;SDS011;60655;52.182;4.474;2023-05-23T04:18:50;19.65;;;5.20;;
72611;SDS011;60655;52.182;4.474;2023-05-23T04:20:51;18.95;;;5.10;;
72611;SDS011;60655;52.182;4.474;2023-05-23T04:22:52;17.75;;;5.65;;
72611;SDS011;60655;52.182;4.474;2023-05-23T04:24:53;16.88;;;5.55;;
72611;SDS011;60655;52.182;4.474;2023-05-23T04:26:54;21.35;;;5.13;;
72611;SDS011;60655;52.182;4.474;2023-05-23T04:28:55;17.98;;;5.07;;
72611;SDS011;60655;52.182;4.474;2023-05-23T04:30:56;16.58;;;5.07;;
72611;SDS011;60655;52.182;4.474;2023-05-23T04:32:58;17.35;;;4.97;;
72611;SDS011;60655;52.182;4.474;2023-05-23T04:34:59;17.40;;;4.50;;
72611;SDS011;60655;52.182;4.474;2023-05-23T04:37:01;17.13;;;4.97;;
72611;SDS011;60655;52.182;4.474;2023-05-23T04:39:03;25.10;;;5.78;;
72611;SDS011;60655;52.182;4.474;2023-05-23T04:41:07;19.63;;;5.18;;
72611;SDS011;60655;52.182;4.474;2023-05-23T04:43:12;19.08;;;5.65;;
72611;SDS011;60655;52.182;4.474;2023-05-23T04:45:14;20.00;;;5.20;;
72611;SDS011;60655;52.182;4.474;2023-05-23T04:47:15;19.30;;;4.82;;
72611;SDS011;60655;52.182;4.474;2023-05-23T04:49:16;17.52;;;4.80;;
72611;SDS011;60655;52.182;4.474;2023-05-23T04:51:17;17.85;;;4.60;;
72611;SDS011;60655;52.182;4.474;2023-05-23T04:53:21;15.27;;;4.75;;
72611;SDS011;60655;52.182;4.474;2023-05-23T04:55:22;20.02;;;5.25;;
72611;SDS011;60655;52.182;4.474;2023-05-23T04:57:23;17.10;;;5.47;;
72611;SDS011;60655;52.182;4.474;2023-05-23T04:59:24;19.17;;;4.63;;
72611;SDS011;60655;52.182;4.474;2023-05-23T05:01:25;19.77;;;4.63;;
72611;SDS011;60655;52.182;4.474;2023-05-23T05:03:27;17.13;;;4.32;;
72611;SDS011;60655;52.182;4.474;2023-05-23T05:05:28;20.23;;;4.93;;
72611;SDS011;60655;52.182;4.474;2023-05-23T05:07:29;22.98;;;5.18;;
72611;SDS011;60655;52.182;4.474;2023-05-23T05:09:30;15.10;;;4.97;;
72611;SDS011;60655;52.182;4.474;2023-05-23T05:11:31;15.02;;;4.90;;
72611;SDS011;60655;52.182;4.474;2023-05-23T05:13:32;12.20;;;4.13;;
72611;SDS011;60655;52.182;4.474;2023-05-23T05:15:33;21.63;;;4.55;;
72611;SDS011;60655;52.182;4.474;2023-05-23T05:17:34;13.75;;;4.57;;
72611;SDS011;60655;52.182;4.474;2023-05-23T05:19:36;16.50;;;4.18;;
72611;SDS011;60655;52.182;4.474;2023-05-23T05:21:38;18.23;;;4.30;;
72611;SDS011;60655;52.182;4.474;2023-05-23T05:23:39;13.90;;;4.22;;
72611;SDS011;60655;52.182;4.474;2023-05-23T05:25:40;16.48;;;4.68;;
72611;SDS011;60655;52.182;4.474;2023-05-23T05:27:41;16.08;;;3.80;;
72611;SDS011;60655;52.182;4.474;2023-05-23T05:29:43;15.73;;;3.78;;
72611;SDS011;60655;52.182;4.474;2023-05-23T05:31:44;13.77;;;3.60;;
72611;SDS011;60655;52.182;4.474;2023-05-23T05:33:45;11.85;;;3.53;;
72611;SDS011;60655;52.182;4.474;2023-05-23T05:35:46;12.88;;;3.20;;
72611;SDS011;60655;52.182;4.474;2023-05-23T05:37:47;18.48;;;4.50;;
72611;SDS011;60655;52.182;4.474;2023-05-23T05:39:48;18.58;;;4.95;;
72611;SDS011;60655;52.182;4.474;2023-05-23T05:41:49;18.48;;;3.58;;
72611;SDS011;60655;52.182;4.474;2023-05-23T05:43:50;12.90;;;3.33;;
72611;SDS011;60655;52.182;4.474;2023-05-23T05:45:51;13.57;;;2.83;;
72611;SDS011;60655;52.182;4.474;2023-05-23T05:47:52;9.63;;;3.13;;
72611;SDS011;60655;52.182;4.474;2023-05-23T05:49:53;16.45;;;3.00;;
72611;SDS011;60655;52.182;4.474;2023-05-23T05:51:53;9.80;;;2.47;;
72611;SDS011;60655;52.182;4.474;2023-05-23T05:53:54;11.05;;;2.60;;
72611;SDS011;60655;52.182;4.474;2023-05-23T05:55:55;6.50;;;2.30;;
72611;SDS011;60655;52.182;4.474;2023-05-23T05:57:56;10.05;;;2.58;;
72611;SDS011;60655;52.182;4.474;2023-05-23T05:59:57;14.02;;;3.10;;
72611;SDS011;60655;52.182;4.474;2023-05-23T06:01:58;11.27;;;2.65;;
72611;SDS011;60655;52.182;4.474;2023-05-23T06:03:59;14.82;;;2.38;;
72611;SDS011;60655;52.182;4.474;2023-05-23T06:06:00;12.52;;;2.05;;
72611;SDS011;60655;52.182;4.474;2023-05-23T06:08:01;12.02;;;2.10;;
72611;SDS011;60655;52.182;4.474;2023-05-23T06:10:03;9.75;;;1.90;;
72611;SDS011;60655;52.182;4.474;2023-05-23T06:12:04;12.48;;;1.83;;
72611;SDS011;60655;52.182;4.474;2023-05-23T06:14:06;12.88;;;1.88;;
72611;SDS011;60655;52.182;4.474;2023-05-23T06:16:07;8.38;;;1.70;;
72611;SDS011;60655;52.182;4.474;2023-05-23T06:18:08;13.10;;;1.90;;
72611;SDS011;60655;52.182;4.474;2023-05-23T06:20:10;10.00;;;1.60;;
72611;SDS011;60655;52.182;4.474;2023-05-23T06:22:12;11.50;;;1.80;;
72611;SDS011;60655;52.182;4.474;2023-05-23T06:24:12;9.65;;;1.95;;
72611;SDS011;60655;52.182;4.474;2023-05-23T06:26:13;13.10;;;1.88;;
72611;SDS011;60655;52.182;4.474;2023-05-23T06:28:14;16.40;;;2.03;;
72611;SDS011;60655;52.182;4.474;2023-05-23T06:30:15;15.45;;;2.40;;
72611;SDS011;60655;52.182;4.474;2023-05-23T06:32:16;14.15;;;2.22;;
72611;SDS011;60655;52.182;4.474;2023-05-23T06:34:17;13.15;;;2.03;;
72611;SDS011;60655;52.182;4.474;2023-05-23T06:36:18;12.98;;;1.98;;
72611;SDS011;60655;52.182;4.474;2023-05-23T06:38:19;17.15;;;1.98;;
72611;SDS011;60655;52.182;4.474;2023-05-23T06:40:20;14.32;;;2.55;;
72611;SDS011;60655;52.182;4.474;2023-05-23T06:42:21;13.82;;;2.05;;
72611;SDS011;60655;52.182;4.474;2023-05-23T06:44:22;21.50;;;2.63;;
72611;SDS011;60655;52.182;4.474;2023-05-23T06:46:23;11.38;;;2.20;;
72611;SDS011;60655;52.182;4.474;2023-05-23T06:48:24;15.73;;;2.30;;
72611;SDS011;60655;52.182;4.474;2023-05-23T06:50:25;13.35;;;2.03;;
72611;SDS011;60655;52.182;4.474;2023-05-23T06:52:26;14.57;;;2.13;;
72611;SDS011;60655;52.182;4.474;2023-05-23T06:54:27;13.82;;;2.15;;
72611;SDS011;60655;52.182;4.474;2023-05-23T06:56:28;13.20;;;2.40;;
72611;SDS011;60655;52.182;4.474;2023-05-23T06:58:29;16.20;;;2.70;;
72611;SDS011;60655;52.182;4.474;2023-05-23T07:00:30;16.08;;;2.67;;
72611;SDS011;60655;52.182;4.474;2023-05-23T07:02:31;19.02;;;2.28;;
72611;SDS011;60655;52.182;4.474;2023-05-23T07:04:32;15.30;;;2.35;;
72611;SDS011;60655;52.182;4.474;2023-05-23T07:06:33;10.50;;;1.70;;
72611;SDS011;60655;52.182;4.474;2023-05-23T07:08:36;14.27;;;2.40;;
72611;SDS011;60655;52.182;4.474;2023-05-23T07:10:37;12.07;;;2.10;;
72611;SDS011;60655;52.182;4.474;2023-05-23T07:12:40;17.15;;;2.42;;
72611;SDS011;60655;52.182;4.474;2023-05-23T07:14:41;12.45;;;2.60;;
72611;SDS011;60655;52.182;4.474;2023-05-23T07:16:42;11.85;;;2.25;;
72611;SDS011;60655;52.182;4.474;2023-05-23T07:18:43;16.42;;;2.67;;
72611;SDS011;60655;52.182;4.474;2023-05-23T07:20:44;16.60;;;2.05;;
72611;SDS011;60655;52.182;4.474;2023-05-23T07:22:45;17.60;;;2.10;;
72611;SDS011;60655;52.182;4.474;2023-05-23T07:24:46;11.32;;;2.10;;
72611;SDS011;60655;52.182;4.474;2023-05-23T07:26:47;15.38;;;2.30;;
72611;SDS011;60655;52.182;4.474;2023-05-23T07:28:48;12.38;;;2.20;;
72611;SDS011;60655;52.182;4.474;2023-05-23T07:30:49;15.02;;;2.28;;
72611;SDS011;60655;52.182;4.474;2023-05-23T07:32:50;14.90;;;2.45;;
72611;SDS011;60655;52.182;4.474;2023-05-23T07:34:55;12.90;;;1.80;;
72611;SDS011;60655;52.182;4.474;2023-05-23T07:36:55;17.58;;;2.92;;
72611;SDS011;60655;52.182;4.474;2023-05-23T07:38:56;15.45;;;2.17;;
72611;SDS011;60655;52.182;4.474;2023-05-23T07:40:57;12.18;;;2.55;;
72611;SDS011;60655;52.182;4.474;2023-05-23T07:42:58;15.70;;;2.63;;
72611;SDS011;60655;52.182;4.474;2023-05-23T07:44:59;13.93;;;2.17;;
72611;SDS011;60655;52.182;4.474;2023-05-23T07:47:00;23.45;;;2.20;;
72611;SDS011;60655;52.182;4.474;2023-05-23T07:49:01;10.00;;;2.00;;
72611;SDS011;60655;52.182;4.474;2023-05-23T07:51:02;12.13;;;2.22;;
72611;SDS011;60655;52.182;4.474;2023-05-23T07:53:03;21.20;;;2.88;;
72611;SDS011;60655;52.182;4.474;2023-05-23T07:55:04;15.40;;;2.38;;
72611;SDS011;60655;52.182;4.474;2023-05-23T07:57:06;14.10;;;2.58;;
72611;SDS011;60655;52.182;4.474;2023-05-23T07:59:08;17.67;;;3.03;;
72611;SDS011;60655;52.182;4.474;2023-05-23T08:01:09;14.00;;;1.92;;
72611;SDS011;60655;52.182;4.474;2023-05-23T08:03:10;16.75;;;2.17;;
72611;SDS011;60655;52.182;4.474;2023-05-23T08:05:11;16.80;;;3.10;;
72611;SDS011;60655;52.182;4.474;2023-05-23T08:07:12;17.70;;;2.45;;
72611;SDS011;60655;52.182;4.474;2023-05-23T08:09:14;18.95;;;2.55;;
72611;SDS011;60655;52.182;4.474;2023-05-23T08:11:15;19.42;;;2.58;;
72611;SDS011;60655;52.182;4.474;2023-05-23T08:13:16;13.75;;;2.20;;
72611;SDS011;60655;52.182;4.474;2023-05-23T08:15:17;13.25;;;2.67;;
72611;SDS011;60655;52.182;4.474;2023-05-23T08:17:18;13.55;;;2.72;;
72611;SDS011;60655;52.182;4.474;2023-05-23T08:19:19;17.83;;;2.75;;
72611;SDS011;60655;52.182;4.474;2023-05-23T08:21:20;19.58;;;2.50;;
72611;SDS011;60655;52.182;4.474;2023-05-23T08:23:22;19.55;;;2.10;;
72611;SDS011;60655;52.182;4.474;2023-05-23T08:25:23;13.27;;;2.65;;
72611;SDS011;60655;52.182;4.474;2023-05-23T08:27:24;15.82;;;2.67;;
72611;SDS011;60655;52.182;4.474;2023-05-23T08:29:25;15.75;;;2.42;;
72611;SDS011;60655;52.182;4.474;2023-05-23T08:31:27;13.80;;;2.45;;
72611;SDS011;60655;52.182;4.474;2023-05-23T08:33:29;20.30;;;2.92;;
72611;SDS011;60655;52.182;4.474;2023-05-23T08:35:30;21.92;;;2.72;;
72611;SDS011;60655;52.182;4.474;2023-05-23T08:37:35;16.45;;;2.40;;
72611;SDS011;60655;52.182;4.474;2023-05-23T08:39:36;17.02;;;2.80;;
72611;SDS011;60655;52.182;4.474;2023-05-23T08:41:37;19.73;;;2.47;;
72611;SDS011;60655;52.182;4.474;2023-05-23T08:43:39;17.25;;;2.78;;
72611;SDS011;60655;52.182;4.474;2023-05-23T08:45:39;17.08;;;2.42;;
72611;SDS011;60655;52.182;4.474;2023-05-23T08:47:42;12.45;;;2.55;;
72611;SDS011;60655;52.182;4.474;2023-05-23T08:49:44;11.32;;;2.50;;
72611;SDS011;60655;52.182;4.474;2023-05-23T08:51:45;15.48;;;2.58;;
72611;SDS011;60655;52.182;4.474;2023-05-23T08:53:48;18.10;;;2.53;;
72611;SDS011;60655;52.182;4.474;2023-05-23T08:55:50;15.63;;;2.58;;
72611;SDS011;60655;52.182;4.474;2023-05-23T08:57:51;9.52;;;1.98;;
72611;SDS011;60655;52.182;4.474;2023-05-23T08:59:53;18.23;;;2.53;;
72611;SDS011;60655;52.182;4.474;2023-05-23T09:01:55;15.25;;;2.50;;
72611;SDS011;60655;52.182;4.474;2023-05-23T09:03:57;12.05;;;2.40;;
72611;SDS011;60655;52.182;4.474;2023-05-23T09:06:07;14.80;;;2.20;;
72611;SDS011;60655;52.182;4.474;2023-05-23T09:08:09;11.77;;;2.20;;
72611;SDS011;60655;52.182;4.474;2023-05-23T09:10:10;15.88;;;2.38;;
72611;SDS011;60655;52.182;4.474;2023-05-23T09:12:12;13.05;;;2.47;;
72611;SDS011;60655;52.182;4.474;2023-05-23T09:14:14;16.23;;;2.40;;
72611;SDS011;60655;52.182;4.474;2023-05-23T09:16:17;15.65;;;2.63;;
72611;SDS011;60655;52.182;4.474;2023-05-23T09:18:19;13.23;;;1.92;;
72611;SDS011;60655;52.182;4.474;2023-05-23T09:20:20;17.98;;;2.13;;
72611;SDS011;60655;52.182;4.474;2023-05-23T09:22:24;19.30;;;2.60;;
72611;SDS011;60655;52.182;4.474;2023-05-23T09:24:32;16.50;;;2.40;;
72611;SDS011;60655;52.182;4.474;2023-05-23T09:26:35;12.07;;;2.05;;
72611;SDS011;60655;52.182;4.474;2023-05-23T09:28:37;11.57;;;2.22;;
72611;SDS011;60655;52.182;4.474;2023-05-23T09:30:38;14.68;;;2.20;;
72611;SDS011;60655;52.182;4.474;2023-05-23T09:32:39;17.17;;;2.45;;
72611;SDS011;60655;52.182;4.474;2023-05-23T09:34:54;13.82;;;2.03;;
72611;SDS011;60655;52.182;4.474;2023-05-23T09:36:57;13.40;;;2.22;;
72611;SDS011;60655;52.182;4.474;2023-05-23T09:39:00;12.35;;;2.08;;
72611;SDS011;60655;52.182;4.474;2023-05-23T09:41:03;15.43;;;2.05;;
72611;SDS011;60655;52.182;4.474;2023-05-23T09:43:04;10.55;;;1.70;;
72611;SDS011;60655;52.182;4.474;2023-05-23T09:45:06;19.15;;;2.15;;
72611;SDS011;60655;52.182;4.474;2023-05-23T09:47:08;10.50;;;2.20;;
72611;SDS011;60655;52.182;4.474;2023-05-23T09:49:15;11.63;;;2.58;;
72611;SDS011;60655;52.182;4.474;2023-05-23T09:51:18;16.38;;;2.10;;
72611;SDS011;60655;52.182;4.474;2023-05-23T09:53:22;14.70;;;2.10;;
72611;SDS011;60655;52.182;4.474;2023-05-23T09:55:23;9.52;;;2.05;;
72611;SDS011;60655;52.182;4.474;2023-05-23T09:57:24;9.38;;;2.10;;
72611;SDS011;60655;52.182;4.474;2023-05-23T09:59:27;10.57;;;1.75;;
72611;SDS011;60655;52.182;4.474;2023-05-23T10:01:30;8.85;;;1.80;;
72611;SDS011;60655;52.182;4.474;2023-05-23T10:03:33;11.38;;;2.47;;
72611;SDS011;60655;52.182;4.474;2023-05-23T10:05:46;13.00;;;2.20;;
72611;SDS011;60655;52.182;4.474;2023-05-23T10:07:48;15.80;;;2.03;;
72611;SDS011;60655;52.182;4.474;2023-05-23T10:09:53;12.77;;;2.50;;
72611;SDS011;60655;52.182;4.474;2023-05-23T10:14:20;14.43;;;2.35;;
72611;SDS011;60655;52.182;4.474;2023-05-23T10:18:38;16.15;;;2.33;;
72611;SDS011;60655;52.182;4.474;2023-05-23T10:20:46;11.98;;;2.00;;
72611;SDS011;60655;52.182;4.474;2023-05-23T10:22:49;12.88;;;2.45;;
72611;SDS011;60655;52.182;4.474;2023-05-23T10:24:50;17.10;;;2.20;;
72611;SDS011;60655;52.182;4.474;2023-05-23T10:26:53;12.02;;;2.00;;
72611;SDS011;60655;52.182;4.474;2023-05-23T10:28:55;12.40;;;1.95;;
72611;SDS011;60655;52.182;4.474;2023-05-23T10:30:58;15.50;;;2.10;;
72611;SDS011;60655;52.182;4.474;2023-05-23T10:32:59;12.73;;;2.25;;
72611;SDS011;60655;52.182;4.474;2023-05-23T10:40:30;14.70;;;2.05;;
72611;SDS011;60655;52.182;4.474;2023-05-23T10:45:13;12.65;;;2.10;;
72611;SDS011;60655;52.182;4.474;2023-05-23T10:47:25;11.52;;;1.70;;
72611;SDS011;60655;52.182;4.474;2023-05-23T10:51:38;18.08;;;1.98;;
72611;SDS011;60655;52.182;4.474;2023-05-23T10:53:43;12.70;;;1.73;;
72611;SDS011;60655;52.182;4.474;2023-05-23T10:55:47;18.20;;;2.15;;
72611;SDS011;60655;52.182;4.474;2023-05-23T10:58:07;17.52;;;2.22;;
72611;SDS011;60655;52.182;4.474;2023-05-23T11:00:22;13.00;;;2.03;;
72611;SDS011;60655;52.182;4.474;2023-05-23T11:02:25;14.65;;;2.30;;
72611;SDS011;60655;52.182;4.474;2023-05-23T11:04:27;15.95;;;2.42;;
72611;SDS011;60655;52.182;4.474;2023-05-23T11:06:32;16.27;;;2.22;;
72611;SDS011;60655;52.182;4.474;2023-05-23T11:08:38;13.80;;;2.10;;
72611;SDS011;60655;52.182;4.474;2023-05-23T11:10:57;16.38;;;2.33;;
72611;SDS011;60655;52.182;4.474;2023-05-23T11:13:05;16.05;;;2.50;;
72611;SDS011;60655;52.182;4.474;2023-05-23T11:17:17;10.63;;;1.92;;
72611;SDS011;60655;52.182;4.474;2023-05-23T11:19:29;15.13;;;1.90;;
72611;SDS011;60655;52.182;4.474;2023-05-23T11:21:30;14.25;;;2.17;;
72611;SDS011;60655;52.182;4.474;2023-05-23T11:23:52;12.88;;;1.75;;
72611;SDS011;60655;52.182;4.474;2023-05-23T11:25:54;12.10;;;1.63;;
72611;SDS011;60655;52.182;4.474;2023-05-23T11:27:55;13.30;;;1.85;;
72611;SDS011;60655;52.182;4.474;2023-05-23T11:30:00;11.23;;;1.70;;
72611;SDS011;60655;52.182;4.474;2023-05-23T11:32:12;11.55;;;1.98;;
72611;SDS011;60655;52.182;4.474;2023-05-23T11:34:13;14.40;;;2.05;;
72611;SDS011;60655;52.182;4.474;2023-05-23T11:36:15;12.82;;;2.60;;
72611;SDS011;60655;52.182;4.474;2023-05-23T11:38:16;8.77;;;1.73;;
72611;SDS011;60655;52.182;4.474;2023-05-23T11:42:47;16.35;;;2.40;;
72611;SDS011;60655;52.182;4.474;2023-05-23T11:44:49;14.50;;;1.80;;
72611;SDS011;60655;52.182;4.474;2023-05-23T11:47:00;10.93;;;2.22;;
72611;SDS011;60655;52.182;4.474;2023-05-23T11:49:09;12.50;;;2.25;;
72611;SDS011;60655;52.182;4.474;2023-05-23T11:51:11;14.93;;;2.25;;
72611;SDS011;60655;52.182;4.474;2023-05-23T11:53:12;15.55;;;2.35;;
72611;SDS011;60655;52.182;4.474;2023-05-23T11:55:19;10.65;;;2.03;;
72611;SDS011;60655;52.182;4.474;2023-05-23T11:57:21;11.18;;;1.95;;
72611;SDS011;60655;52.182;4.474;2023-05-23T11:59:23;16.92;;;2.30;;
72611;SDS011;60655;52.182;4.474;2023-05-23T12:01:27;12.40;;;1.67;;
72611;SDS011;60655;52.182;4.474;2023-05-23T12:03:30;11.10;;;1.50;;
72611;SDS011;60655;52.182;4.474;2023-05-23T12:05:32;13.85;;;1.88;;
72611;SDS011;60655;52.182;4.474;2023-05-23T12:07:33;11.98;;;1.88;;
72611;SDS011;60655;52.182;4.474;2023-05-23T12:09:42;10.85;;;1.58;;
72611;SDS011;60655;52.182;4.474;2023-05-23T12:11:44;17.25;;;2.17;;
72611;SDS011;60655;52.182;4.474;2023-05-23T12:13:45;13.73;;;2.15;;
72611;SDS011;60655;52.182;4.474;2023-05-23T12:15:46;17.42;;;2.22;;
72611;SDS011;60655;52.182;4.474;2023-05-23T12:17:48;8.90;;;1.77;;
72611;SDS011;60655;52.182;4.474;2023-05-23T12:19:51;12.93;;;1.95;;
72611;SDS011;60655;52.182;4.474;2023-05-23T12:21:52;10.77;;;2.13;;
72611;SDS011;60655;52.182;4.474;2023-05-23T12:23:53;16.38;;;2.33;;
72611;SDS011;60655;52.182;4.474;2023-05-23T12:25:55;11.18;;;1.70;;
72611;SDS011;60655;52.182;4.474;2023-05-23T12:27:56;11.18;;;2.00;;
72611;SDS011;60655;52.182;4.474;2023-05-23T12:30:07;11.52;;;1.85;;